Map

Track Data

SID SEASON NUMBER BASIN SUBBASIN NAME ISO_TIME NATURE LAT LON WMO_WIND WMO_PRES WMO_AGENCY TRACK_TYPE DIST2LAND LANDFALL IFLAG USA_AGENCY USA_ATCF_ID USA_LAT USA_LON USA_RECORD USA_STATUS USA_WIND USA_PRES USA_SSHS USA_R34_NE USA_R34_SE USA_R34_SW USA_R34_NW USA_R50_NE USA_R50_SE USA_R50_SW USA_R50_NW USA_R64_NE USA_R64_SE USA_R64_SW USA_R64_NW USA_POCI USA_ROCI USA_RMW USA_EYE TOKYO_LAT TOKYO_LON TOKYO_GRADE TOKYO_WIND TOKYO_PRES TOKYO_R50_DIR TOKYO_R50_LONG TOKYO_R50_SHORT TOKYO_R30_DIR TOKYO_R30_LONG TOKYO_R30_SHORT TOKYO_LAND CMA_LAT CMA_LON CMA_CAT CMA_WIND CMA_PRES HKO_LAT HKO_LON HKO_CAT HKO_WIND HKO_PRES NEWDELHI_LAT NEWDELHI_LON NEWDELHI_GRADE NEWDELHI_WIND NEWDELHI_PRES NEWDELHI_CI NEWDELHI_DP NEWDELHI_POCI REUNION_LAT REUNION_LON REUNION_TYPE REUNION_WIND REUNION_PRES REUNION_TNUM REUNION_CI REUNION_RMW REUNION_R34_NE REUNION_R34_SE REUNION_R34_SW REUNION_R34_NW REUNION_R50_NE REUNION_R50_SE REUNION_R50_SW REUNION_R50_NW REUNION_R64_NE REUNION_R64_SE REUNION_R64_SW REUNION_R64_NW BOM_LAT BOM_LON BOM_TYPE BOM_WIND BOM_PRES BOM_TNUM BOM_CI BOM_RMW BOM_R34_NE BOM_R34_SE BOM_R34_SW BOM_R34_NW BOM_R50_NE BOM_R50_SE BOM_R50_SW BOM_R50_NW BOM_R64_NE BOM_R64_SE BOM_R64_SW BOM_R64_NW BOM_ROCI BOM_POCI BOM_EYE BOM_POS_METHOD BOM_PRES_METHOD NADI_LAT NADI_LON NADI_CAT NADI_WIND NADI_PRES WELLINGTON_LAT WELLINGTON_LON WELLINGTON_WIND WELLINGTON_PRES DS824_LAT DS824_LON DS824_STAGE DS824_WIND DS824_PRES TD9636_LAT TD9636_LON TD9636_STAGE TD9636_WIND TD9636_PRES TD9635_LAT TD9635_LON TD9635_WIND TD9635_PRES TD9635_ROCI NEUMANN_LAT NEUMANN_LON NEUMANN_CLASS NEUMANN_WIND NEUMANN_PRES MLC_LAT MLC_LON MLC_CLASS MLC_WIND MLC_PRES USA_GUST BOM_GUST BOM_GUST_PER REUNION_GUST REUNION_GUST_PER USA_SEAHGT USA_SEARAD_NE USA_SEARAD_SE USA_SEARAD_SW USA_SEARAD_NW STORM_SPEED STORM_DIR
1945153N11133 1945 25 WP MM CONNIE 1945-06-01 12:00:00 TS 11.3000 133.000 main 780 733 O________OOO__ jtwc_wp WP031945 11.3000 133.000 30 -1 11.3000 133.000 TC 30 11.3000 133.000 1 30 11.3000 133.000 30 1001 180 11 298
1945153N11133 1945 25 WP MM CONNIE 1945-06-01 15:00:00 TS 11.5574 132.500 main 734 691 P________PPP__ WP031945 11.5728 132.465 30 -1 11.5728 132.465 TC 30 11.5110 132.605 1 30 11.5728 132.465 30 1001 180 11 297
1945153N11133 1945 25 WP MM CONNIE 1945-06-01 18:00:00 TS 11.7794 132.049 main 682 651 O________OPO__ jtwc_wp WP031945 11.8000 132.000 30 -1 11.8000 132.000 TC 30 11.7174 132.198 1 30 11.8000 132.000 30 1001 180 9 296
1945153N11133 1945 25 WP MM CONNIE 1945-06-01 21:00:00 TS 11.9468 131.673 main 651 612 P________PPP__ WP031945 11.9573 131.642 30 -1 11.9573 131.642 TC 30 11.9152 131.767 1 30 11.9573 131.642 30 1000 180 8 294
1945153N11133 1945 25 WP MM CONNIE 1945-06-02 00:00:00 TS 12.1000 131.300 main 612 571 O________OOO__ jtwc_wp WP031945 12.1000 131.300 30 -1 12.1000 131.300 TC 30 12.1000 131.300 1 30 12.1000 131.300 30 1000 180 9 293
1945153N11133 1945 25 WP MM CONNIE 1945-06-02 03:00:00 TS 12.2821 130.848 main 564 528 P________PPP__ WP031945 12.2850 130.865 30 -1 12.2850 130.865 TC 30 12.2735 130.796 1 30 12.2850 130.865 30 1000 180 10 293
1945153N11133 1945 25 WP MM CONNIE 1945-06-02 06:00:00 TS 12.4902 130.374 main 528 481 O________OPO__ jtwc_wp WP031945 12.5000 130.400 30 -1 12.5000 130.400 TC 30 12.4606 130.295 1 30 12.5000 130.400 30 1000 180 10 294
1945153N11133 1945 25 WP MM CONNIE 1945-06-02 09:00:00 TS 12.7019 129.885 main 481 441 P________PPP__ WP031945 12.7051 129.898 30 -1 12.7051 129.898 TC 30 12.6923 129.846 1 30 12.7051 129.898 30 1000 180 10 301
1945153N11133 1945 25 WP MM CONNIE 1945-06-02 12:00:00 TS 13.0000 129.500 main 443 433 O________OOO__ jtwc_wp WP031945 13.0000 129.500 30 -1 13.0000 129.500 TC 30 13.0000 129.500 1 30 13.0000 129.500 30 1000 180 9 324
1945153N11133 1945 25 WP MM CONNIE 1945-06-02 15:00:00 TS 13.4519 129.333 main 437 437 P________PPP__ WP031945 13.4624 129.340 30 -1 13.4624 129.340 TC 30 13.4205 129.313 1 31 13.4624 129.340 30 999 180 10 348
1945153N11133 1945 25 WP MM CONNIE 1945-06-02 18:00:00 TS 13.9792 129.282 main 458 458 O________OPO__ jtwc_wp WP031945 14.0000 129.300 30 -1 14.0000 129.300 TC 30 13.9170 129.229 1 32 14.0000 129.300 30 999 180 10 355
1945153N11133 1945 25 WP MM CONNIE 1945-06-02 21:00:00 TS 14.4888 129.233 main 476 476 P________PPP__ WP031945 14.5000 129.242 32 -1 14.5000 129.242 TC 32 14.4550 129.206 1 33 14.5000 129.242 32 999 180 10 355
1945153N11133 1945 25 WP MM CONNIE 1945-06-03 00:00:00 TS 15.0000 129.200 main 508 508 O________OOO__ jtwc_wp WP031945 15.0000 129.200 35 0 15.0000 129.200 TC 35 15.0000 129.200 2 35 15.0000 129.200 35 999 180 10 355
1945153N11133 1945 25 WP MM CONNIE 1945-06-03 03:00:00 TS 15.4959 129.136 main 536 536 P________PPP__ WP031945 15.5000 129.150 35 0 15.5000 129.150 TC 35 15.4837 129.095 2 35 15.5000 129.150 35 999 210 10 353
1945153N11133 1945 25 WP MM CONNIE 1945-06-03 06:00:00 TS 15.9925 129.076 main 557 557 O________OPO__ jtwc_wp WP031945 16.0000 129.100 35 0 16.0000 129.100 TC 35 15.9699 129.004 2 35 16.0000 129.100 35 999 240 10 352
1945153N11133 1945 25 WP MM CONNIE 1945-06-03 09:00:00 TS 16.4815 129.000 main 573 573 P________PPP__ WP031945 16.4850 129.013 35 0 16.4850 129.013 TC 35 16.4711 128.961 2 35 16.4850 129.013 35 998 270 10 356
1945153N11133 1945 25 WP MM CONNIE 1945-06-03 12:00:00 TS 17.0000 129.000 main 602 602 O________OOO__ jtwc_wp WP031945 17.0000 129.000 35 0 17.0000 129.000 TC 35 17.0000 129.000 2 35 17.0000 129.000 35 998 300 11 7
1945153N11133 1945 25 WP MM CONNIE 1945-06-03 15:00:00 TS 17.5846 129.151 main 659 659 P________PPP__ WP031945 17.5850 129.147 35 0 17.5850 129.147 TC 35 17.5836 129.163 2 36 17.5850 129.147 35 998 330 13 18
1945153N11133 1945 25 WP MM CONNIE 1945-06-03 18:00:00 TS 18.1982 129.402 main 719 719 O________OPO__ jtwc_wp WP031945 18.2000 129.400 35 0 18.2000 129.400 TC 35 18.1928 129.409 2 37 18.2000 129.400 35 998 360 13 23
1945153N11133 1945 25 WP MM CONNIE 1945-06-03 21:00:00 TS 18.8127 129.700 main 781 781 P________PPP__ WP031945 18.8151 129.700 37 0 18.8151 129.700 TC 37 18.8055 129.701 2 38 18.8151 129.700 37 997 390 13 25
1945153N11133 1945 25 WP MM CONNIE 1945-06-04 00:00:00 TS 19.4000 130.000 main 817 817 O________OOO__ jtwc_wp WP031945 19.4000 130.000 40 0 19.4000 130.000 TC 40 19.4000 130.000 2 40 19.4000 130.000 40 997 420 12 23
1945153N11133 1945 25 WP MM CONNIE 1945-06-04 03:00:00 TS 19.9098 130.200 main 846 846 P________PPP__ WP031945 19.9074 130.201 40 0 19.9074 130.201 TC 40 19.9173 130.200 2 40 19.9074 130.201 40 996 420 11 21
1945153N11133 1945 25 WP MM CONNIE 1945-06-04 06:00:00 TS 20.4047 130.402 main 878 878 O________OPO__ jtwc_wp WP031945 20.4000 130.400 40 0 20.4000 130.400 TC 40 20.4187 130.407 2 40 20.4000 130.400 40 995 420 11 23
1945153N11133 1945 25 WP MM CONNIE 1945-06-04 09:00:00 TS 20.9182 130.657 main 922 922 P________PPP__ WP031945 20.9123 130.656 40 0 20.9123 130.656 TC 40 20.9358 130.660 2 40 20.9123 130.656 40 994 390 12 27
1945153N11133 1945 25 WP MM CONNIE 1945-06-04 12:00:00 TS 21.5000 131.000 main 972 972 O________OOO__ jtwc_wp WP031945 21.5000 131.000 40 0 21.5000 131.000 TC 40 21.5000 131.000 2 40 21.5000 131.000 40 994 360 15 30
1945153N11133 1945 25 WP MM CONNIE 1945-06-04 15:00:00 TS 22.2147 131.452 main 986 912 P________PPP__ WP031945 22.2349 131.448 40 0 22.2349 131.448 TC 40 22.1540 131.465 2 41 22.2349 131.448 40 993 330 17 32
1945153N11133 1945 25 WP MM CONNIE 1945-06-04 18:00:00 TS 22.9638 132.006 main 902 847 O________OPO__ jtwc_wp WP031945 23.0000 132.000 40 0 23.0000 132.000 TC 40 22.8553 132.022 2 42 23.0000 132.000 40 993 300 18 37
1945153N11133 1945 25 WP MM CONNIE 1945-06-04 21:00:00 TS 23.6377 132.627 main 847 790 P________PPP__ WP031945 23.6574 132.621 42 0 23.6574 132.621 TC 42 23.5788 132.644 2 43 23.6574 132.621 42 992 300 18 42
1945153N11133 1945 25 WP MM CONNIE 1945-06-05 00:00:00 TS 24.3000 133.300 main 790 739 O________OOO__ jtwc_wp WP031945 24.3000 133.300 45 0 24.3000 133.300 TC 45 24.3000 133.300 2 45 24.3000 133.300 45 992 300 18 42
1945153N11133 1945 25 WP MM CONNIE 1945-06-05 03:00:00 TS 25.0048 133.980 main 743 703 P________PPP__ WP031945 24.9999 134.000 47 0 24.9999 134.000 TC 47 25.0196 133.921 2 48 24.9999 134.000 47 991 330 19 41
1945153N11133 1945 25 WP MM CONNIE 1945-06-05 06:00:00 TS 25.7067 134.668 main 709 678 O________OPO__ jtwc_wp WP031945 25.7000 134.700 50 0 25.7000 134.700 TC 50 25.7270 134.572 2 52 25.7000 134.700 50 990 360 18 41
1945153N11133 1945 25 WP MM CONNIE 1945-06-05 09:00:00 TS 26.3834 135.318 main 674 658 P________PPP__ WP031945 26.3793 135.336 55 0 26.3793 135.336 TC 55 26.3959 135.263 2 56 26.3793 135.336 55 987 390 18 43
1945153N11133 1945 25 WP MM CONNIE 1945-06-05 12:00:00 TS 27.0000 136.000 main 663 660 O________OOO__ jtwc_wp WP031945 27.0000 136.000 60 0 27.0000 136.000 TC 60 27.0000 136.000 2 60 27.0000 136.000 60 984 420 17 49
1945153N11133 1945 25 WP MM CONNIE 1945-06-05 15:00:00 TS 27.5213 136.796 main 665 626 P________PPP__ WP031945 27.5226 136.793 65 1 27.5226 136.793 TC 65 27.5171 136.805 2 65 27.5226 136.793 65 982 420 17 55
1945153N11133 1945 25 WP MM CONNIE 1945-06-05 18:00:00 TS 28.0000 137.600 main 626 596 O________OOO__ jtwc_wp WP031945 28.0000 137.600 70 1 28.0000 137.600 TC 70 28.0000 137.600 3 70 28.0000 137.600 70 980 420 17 54
1945153N11133 1945 25 WP MM CONNIE 1945-06-05 21:00:00 TS 28.4993 138.310 main 596 577 P________PPP__ WP031945 28.4993 138.308 70 1 28.4993 138.308 TC 70 28.4992 138.313 3 70 28.4993 138.308 70 980 420 16 51
1945153N11133 1945 25 WP MM CONNIE 1945-06-06 00:00:00 TS 29.0000 139.000 main 577 567 O________OOO__ jtwc_wp WP031945 29.0000 139.000 70 1 29.0000 139.000 TC 70 29.0000 139.000 4 70 29.0000 139.000 70 980 420 16 51
1945153N11133 1945 25 WP MM CONNIE 1945-06-06 03:00:00 TS 29.5079 139.734 main 570 534 P________PPP__ WP031945 29.4997 139.743 65 1 29.4997 139.743 TC 65 29.5325 139.707 4 66 29.4997 139.743 65 988 390 16 52
1945153N11133 1945 25 WP MM CONNIE 1945-06-06 06:00:00 TS 30.0164 140.483 main 537 503 O________OPO__ jtwc_wp WP031945 30.0000 140.500 60 0 30.0000 140.500 TC 60 30.0655 140.432 4 62 30.0000 140.500 60 996 360 16 51
1945153N11133 1945 25 WP MM CONNIE 1945-06-06 09:00:00 TS 30.5439 141.213 main 505 473 P________PPP__ WP031945 30.5365 141.220 57 0 30.5365 141.220 TC 57 30.5659 141.191 4 58 30.5365 141.220 57 993 330 16 53
1945153N11133 1945 25 WP MM CONNIE 1945-06-06 12:00:00 TS 31.0000 142.000 main 476 470 O________OOO__ jtwc_wp WP031945 31.0000 142.000 55 0 31.0000 142.000 TC 55 31.0000 142.000 2 55 31.0000 142.000 55 990 300 16 63
1945153N11133 1945 25 WP MM CONNIE 1945-06-06 15:00:00 TS 31.2962 142.920 main 488 488 P________PPP__ WP031945 31.2876 142.929 52 0 31.2876 142.929 TC 52 31.3222 142.894 2 51 31.2876 142.929 52 991 300 17 72
1945153N11133 1945 25 WP MM CONNIE 1945-06-06 18:00:00 TS 31.5189 143.883 main 524 521 O________OPO__ jtwc_wp WP031945 31.5000 143.900 50 0 31.5000 143.900 TC 50 31.5756 143.832 2 47 31.5000 143.900 50 992 300 17 74
1945153N11133 1945 25 WP MM CONNIE 1945-06-06 21:00:00 TS 31.7542 144.812 main 556 556 P________PPP__ WP031945 31.7420 144.823 45 0 31.7420 144.823 TC 45 31.7909 144.778 2 43 31.7420 144.823 45 993 300 16 73
1945153N11133 1945 25 WP MM CONNIE 1945-06-07 00:00:00 TS 32.0000 145.700 main 604 604 O________OOO__ jtwc_wp WP031945 32.0000 145.700 40 0 32.0000 145.700 TC 40 32.0000 145.700 2 40 32.0000 145.700 40 995 300 15 70
1945153N11133 1945 25 WP MM CONNIE 1945-06-07 03:00:00 TS 32.2871 146.524 main 639 639 P________PPP__ WP031945 32.3066 146.508 37 0 32.3066 146.508 TC 37 32.2289 146.572 2 37 32.3066 146.508 37 996 300 15 67
1945153N11133 1945 25 WP MM CONNIE 1945-06-07 06:00:00 TS 32.5693 147.326 main 681 681 O________OPO__ jtwc_wp WP031945 32.6000 147.300 35 0 32.6000 147.300 TC 35 32.4771 147.402 2 35 32.6000 147.300 35 997 300 15 69
1945153N11133 1945 25 WP MM CONNIE 1945-06-07 09:00:00 TS 32.8022 148.153 main 743 743 P________PPP__ WP031945 32.8239 148.135 32 -1 32.8239 148.135 TC 32 32.7368 148.206 2 32 32.8239 148.135 32 998 300 15 73
1945153N11133 1945 25 WP MM CONNIE 1945-06-07 12:00:00 TS 33.0000 149.000 main 800 O________OOO__ jtwc_wp WP031945 33.0000 149.000 30 -1 33.0000 149.000 TC 30 33.0000 149.000 1 30 33.0000 149.000 30 999 300 15 74

Digital Typhoon Data and Search

About IBTrACS Database

This database is a web-friendly format of International Best Track Archive for Climate Stewardship (IBTrACS), a global best track data archive curated by NOAA dating back to 1842.

Updated: 2021-11-26